Time;durP1;ratioP1;P1;durP2;ratioP2;P2;SDS_P1;SDS_P2;PMS_P1;PMS_P2;Temp;Humidity;BMP_temperature;BMP_pressure;BME280_temperature;BME280_humidity;BME280_pressure;Samples;Min_cycle;Max_cycle;Signal;HPM_P1;HPM_P2
2022/04/20 00:02:24;;;;;;;18.80;10.70;;;5.40;90.10;;;5.12;59.74;94625.31;5052093;28;20537;-57
2022/04/20 00:04:53;;;;;;;15.43;9.97;;;5.40;89.80;;;5.10;59.72;94622.00;5050365;28;20588;-60
2022/04/20 00:07:22;;;;;;;11.27;8.27;;;5.30;90.00;;;5.10;59.80;94629.81;5054511;28;21008;-55
2022/04/20 00:09:50;;;;;;;31.57;11.83;;;5.30;90.40;;;5.03;59.21;94630.25;5049554;28;20566;-61
2022/04/20 00:12:17;;;;;;;13.77;10.60;;;5.30;89.20;;;4.98;59.57;94616.72;5049397;28;20487;-56
2022/04/20 00:14:44;;;;;;;18.20;10.67;;;5.20;89.60;;;4.96;60.33;94626.41;5052542;28;20471;-56
2022/04/20 00:17:12;;;;;;;16.03;10.83;;;5.20;90.20;;;4.96;59.89;94633.41;5054802;28;20462;-57
2022/04/20 00:19:39;;;;;;;16.03;10.53;;;5.20;90.20;;;4.95;60.01;94632.56;5053368;28;20463;-57
2022/04/20 00:22:07;;;;;;;13.17;8.70;;;5.20;90.40;;;4.95;60.50;94637.78;5057490;28;20451;-55
2022/04/20 00:24:35;;;;;;;15.73;10.63;;;5.20;90.70;;;4.95;60.86;94631.75;5052714;28;20559;-56
2022/04/20 00:27:03;;;;;;;19.13;10.30;;;5.20;90.80;;;4.95;60.59;94627.34;5056888;28;20459;-57
2022/04/20 00:29:30;;;;;;;20.10;9.90;;;5.20;90.60;;;4.95;60.77;94629.97;5055481;28;20481;-57
2022/04/20 00:31:58;;;;;;;16.87;10.80;;;5.20;90.90;;;4.94;60.66;94628.31;5055243;28;20565;-57
2022/04/20 00:34:25;;;;;;;17.20;10.50;;;5.20;90.70;;;4.94;60.59;94622.25;5053723;28;20459;-58
2022/04/20 00:36:53;;;;;;;21.33;10.67;;;5.10;90.70;;;4.92;60.37;94627.56;5053252;28;20464;-57
2022/04/20 00:39:21;;;;;;;26.27;12.60;;;5.10;90.50;;;4.89;61.06;94619.97;5050884;28;20458;-58
2022/04/20 00:41:50;;;;;;;21.87;10.97;;;5.10;90.80;;;4.85;60.54;94622.00;5051375;28;20479;-57
2022/04/20 00:44:17;;;;;;;19.53;11.40;;;5.10;90.40;;;4.83;60.52;94620.44;5052768;28;20454;-57
2022/04/20 00:46:44;;;;;;;26.30;11.57;;;5.00;90.60;;;4.81;60.84;94623.16;5057249;28;20526;-57
2022/04/20 00:49:11;;;;;;;17.50;11.90;;;5.00;90.90;;;4.82;60.84;94624.00;5054851;28;20485;-57
2022/04/20 00:51:39;;;;;;;18.30;11.13;;;5.00;90.80;;;4.81;60.73;94623.16;5056718;28;20499;-57
2022/04/20 00:54:07;;;;;;;21.67;9.70;;;5.00;90.90;;;4.81;60.97;94622.31;5049349;28;21060;-56
2022/04/20 00:56:34;;;;;;;16.97;11.37;;;5.00;91.10;;;4.82;61.13;94621.38;5058285;28;20991;-56
2022/04/20 00:59:03;;;;;;;14.63;10.57;;;5.00;91.00;;;4.83;60.85;94623.03;5050145;28;20451;-57
2022/04/20 01:01:30;;;;;;;18.80;10.67;;;5.00;91.00;;;4.81;60.84;94620.53;5054182;28;20471;-58
2022/04/20 01:03:58;;;;;;;10.73;9.40;;;5.00;91.00;;;4.81;61.13;94630.13;5058272;28;20467;-57
2022/04/20 01:06:25;;;;;;;12.57;9.87;;;5.00;91.00;;;4.81;61.02;94619.72;5057611;28;20824;-57
2022/04/20 01:08:52;;;;;;;17.87;10.03;;;5.00;91.00;;;4.79;61.18;94627.66;5057129;28;20478;-56
2022/04/20 01:11:19;;;;;;;11.77;9.07;;;5.00;91.60;;;4.79;61.11;94630.25;5052169;28;20561;-56
2022/04/20 01:13:47;;;;;;;16.93;10.43;;;5.00;91.00;;;4.79;60.76;94619.00;5054907;28;20462;-56
2022/04/20 01:16:15;;;;;;;12.30;9.63;;;5.00;91.10;;;4.74;61.29;94616.72;5058350;28;20478;-56
2022/04/20 01:18:44;;;;;;;18.83;10.37;;;5.00;91.00;;;4.72;61.03;94617.78;5054548;28;20537;-56
2022/04/20 01:21:13;;;;;;;19.50;9.43;;;5.00;91.00;;;4.72;61.52;94615.16;5053557;28;20571;-57
2022/04/20 01:23:40;;;;;;;13.30;9.90;;;4.90;91.20;;;4.67;61.01;94613.72;5050393;28;20869;-56
2022/04/20 01:26:08;;;;;;;12.67;9.67;;;4.90;91.20;;;4.67;60.98;94621.53;5051118;28;20857;-57
2022/04/20 01:28:37;;;;;;;22.03;10.90;;;4.90;91.30;;;4.67;61.07;94621.53;5049989;28;20450;-56
2022/04/20 01:31:05;;;;;;;12.80;9.20;;;4.90;91.20;;;4.65;61.19;94628.63;5051583;28;20487;-57
2022/04/20 01:33:32;;;;;;;13.10;8.70;;;4.90;91.00;;;4.62;61.21;94628.84;5050784;28;20455;-57
2022/04/20 01:35:59;;;;;;;13.43;9.70;;;4.90;91.30;;;4.62;61.73;94630.63;5057845;28;20474;-58
2022/04/20 01:38:28;;;;;;;13.80;10.50;;;4.90;91.60;;;4.61;61.43;94626.34;5058110;28;20567;-58
2022/04/20 01:40:55;;;;;;;16.33;10.23;;;4.80;91.30;;;4.60;61.28;94630.75;5053907;28;20634;-55
2022/04/20 01:43:23;;;;;;;15.00;10.87;;;4.80;91.30;;;4.60;61.42;94630.75;5056330;28;20955;-55
2022/04/20 01:45:50;;;;;;;13.90;9.60;;;4.80;91.40;;;4.58;61.07;94627.41;5057073;28;20482;-55
2022/04/20 01:48:17;;;;;;;12.57;9.67;;;4.80;91.30;;;4.58;61.58;94644.81;5056052;28;20959;-56
2022/04/20 01:53:25;;;;;;;17.53;11.00;;;4.80;91.40;;;4.55;62.16;94639.81;5054902;28;20431;-56
2022/04/20 01:55:54;;;;;;;20.40;13.53;;;4.80;91.90;;;4.54;61.53;94636.38;5056007;28;20572;-56
2022/04/20 01:58:21;;;;;;;17.17;11.97;;;4.80;91.40;;;4.55;62.48;94637.22;5052954;28;20451;-57
2022/04/20 02:00:49;;;;;;;17.40;11.87;;;4.80;91.90;;;4.53;62.13;94645.13;5057201;28;20470;-56
2022/04/20 02:03:15;;;;;;;22.80;11.77;;;4.70;91.90;;;4.52;61.62;94635.66;5059611;28;20470;-56
2022/04/20 02:05:42;;;;;;;19.40;10.60;;;4.70;91.70;;;4.54;61.98;94635.53;5060841;28;20492;-56
2022/04/20 02:08:09;;;;;;;16.67;10.23;;;4.70;91.90;;;4.54;62.83;94644.22;5053714;28;20455;-55
2022/04/20 02:10:37;;;;;;;17.13;10.60;;;4.70;92.30;;;4.53;62.28;94645.13;5051217;28;20481;-57
2022/04/20 02:13:06;;;;;;;17.67;9.70;;;4.70;92.10;;;4.55;62.95;94626.78;5056103;28;20493;-57
2022/04/20 02:15:33;;;;;;;10.30;8.13;;;4.70;92.50;;;4.55;62.32;94627.63;5057850;28;20474;-57
2022/04/20 02:18:00;;;;;;;13.90;9.47;;;4.70;92.40;;;4.52;62.51;94627.84;5060325;28;20455;-58
2022/04/20 02:20:28;;;;;;;12.43;9.50;;;4.70;92.10;;;4.50;62.79;94640.16;5056463;28;20479;-55
2022/04/20 02:22:55;;;;;;;13.47;9.70;;;4.70;92.50;;;4.50;62.24;94640.16;5060851;28;20979;-55
2022/04/20 02:25:22;;;;;;;10.63;8.13;;;4.70;92.30;;;4.48;62.82;94619.41;5058404;28;20487;-57
2022/04/20 02:27:49;;;;;;;12.80;8.37;;;4.70;92.70;;;4.50;62.94;94619.31;5057778;28;21043;-57
2022/04/20 02:30:18;;;;;;;12.30;8.97;;;4.70;92.80;;;4.51;62.65;94620.97;5057076;28;20537;-56
2022/04/20 02:32:45;;;;;;;12.33;9.07;;;4.70;92.70;;;4.52;62.62;94627.84;5061046;28;20492;-56
2022/04/20 02:35:13;;;;;;;9.40;8.23;;;4.70;92.60;;;4.52;63.08;94625.22;5060734;28;20875;-55
2022/04/20 02:37:40;;;;;;;8.27;7.37;;;4.70;92.70;;;4.53;62.93;94619.09;5068129;28;20450;-56
2022/04/20 02:40:10;;;;;;;11.40;8.77;;;4.70;92.60;;;4.51;62.80;94613.16;5054704;28;21002;-55
2022/04/20 02:42:37;;;;;;;9.50;8.30;;;4.70;92.90;;;4.51;62.99;94623.59;5063171;28;20960;-55
2022/04/20 02:45:05;;;;;;;10.33;8.20;;;4.70;92.90;;;4.52;63.28;94627.84;5050390;28;20468;-55
2022/04/20 02:47:34;;;;;;;12.50;9.13;;;4.70;93.30;;;4.55;63.64;94627.63;5053951;28;21082;-56
2022/04/20 02:50:01;;;;;;;11.40;9.07;;;4.70;93.40;;;4.56;63.64;94618.88;5056344;28;21080;-55
2022/04/20 02:52:28;;;;;;;12.57;8.80;;;4.70;93.40;;;4.56;63.90;94615.44;5051979;28;20992;-57
2022/04/20 02:54:56;;;;;;;9.27;7.90;;;4.70;93.40;;;4.55;64.16;94627.63;5063912;28;20494;-57
2022/04/20 02:57:23;;;;;;;10.33;7.63;;;4.80;93.40;;;4.54;62.94;94635.53;5055753;28;21039;-56
2022/04/20 02:59:50;;;;;;;11.40;8.27;;;4.70;92.90;;;4.53;63.48;94621.69;5056107;28;20479;-56
2022/04/20 03:02:18;;;;;;;12.13;9.77;;;4.70;93.30;;;4.52;63.28;94627.00;5053875;28;20537;-56
2022/04/20 03:04:46;;;;;;;10.13;9.03;;;4.70;93.10;;;4.51;63.65;94648.78;5058373;28;20482;-56
2022/04/20 03:07:14;;;;;;;13.73;10.20;;;4.70;93.30;;;4.51;63.44;94635.75;5057841;28;20504;-55
2022/04/20 03:09:41;;;;;;;12.07;9.03;;;4.70;93.30;;;4.48;63.98;94621.19;5055880;28;20470;-58
2022/04/20 03:12:10;;;;;;;14.33;9.67;;;4.70;93.50;;;4.46;64.29;94638.69;5055087;28;20491;-56
2022/04/20 03:14:37;;;;;;;65.47;26.07;;;4.70;93.70;;;4.44;63.42;94640.56;5058981;28;20455;-55
2022/04/20 03:17:05;;;;;;;14.90;10.17;;;4.70;93.40;;;4.44;64.38;94636.19;5056235;28;20918;-57
2022/04/20 03:19:33;;;;;;;13.93;9.50;;;4.70;94.30;;;4.42;64.24;94634.66;5063142;28;20451;-57
2022/04/20 03:22:02;;;;;;;13.83;9.60;;;4.60;93.80;;;4.43;64.72;94649.31;5059787;28;20906;-55
2022/04/20 03:24:29;;;;;;;13.90;10.23;;;4.60;94.40;;;4.46;64.15;94633.47;5050388;28;21021;-55
2022/04/20 03:26:56;;;;;;;15.97;11.37;;;4.60;93.90;;;4.48;64.01;94632.44;5051297;28;20456;-58
2022/04/20 03:29:23;;;;;;;13.97;9.43;;;4.70;93.90;;;4.52;64.05;94616.59;5051940;28;20505;-57
2022/04/20 03:31:51;;;;;;;12.87;9.50;;;4.70;93.70;;;4.52;64.13;94612.22;5060663;28;20491;-61
2022/04/20 03:34:18;;;;;;;12.73;8.83;;;4.70;93.80;;;4.53;63.79;94626.09;5053674;28;20981;-57
2022/04/20 03:36:46;;;;;;;13.77;10.13;;;4.70;93.70;;;4.54;64.85;94607.75;5059493;28;20486;-57
2022/04/20 03:39:15;;;;;;;16.03;9.53;;;4.70;94.20;;;4.55;64.13;94619.81;5055472;28;20834;-56
2022/04/20 03:41:43;;;;;;;13.07;9.93;;;4.70;93.80;;;4.55;63.96;94614.59;5068385;28;20487;-56
2022/04/20 03:44:10;;;;;;;16.63;10.23;;;4.80;93.90;;;4.53;63.87;94615.66;5067520;28;20478;-56
2022/04/20 03:46:37;;;;;;;15.07;10.00;;;4.80;93.70;;;4.54;63.56;94610.34;5057365;28;20483;-56
2022/04/20 03:49:04;;;;;;;13.63;9.23;;;4.70;93.60;;;4.54;63.93;94620.75;5057077;28;20486;-57
2022/04/20 03:51:32;;;;;;;11.77;8.90;;;4.70;93.60;;;4.54;63.57;94620.75;5055647;28;20489;-57
2022/04/20 03:54:00;;;;;;;10.80;9.33;;;4.70;93.30;;;4.55;63.35;94622.41;5053881;28;20473;-55
2022/04/20 03:57:03;;;;;;;13.00;9.40;;;4.80;93.40;;;4.57;63.65;94615.34;5056814;28;20479;-57
2022/04/20 03:59:17;;;;;;;13.93;9.17;;;4.80;93.50;;;4.60;63.46;94614.25;5053088;28;20482;-57
2022/04/20 04:01:44;;;;;;;14.30;9.63;;;4.80;93.30;;;4.62;63.66;94621.03;5046491;28;20479;-55
2022/04/20 04:04:11;;;;;;;15.27;9.87;;;4.80;93.40;;;4.66;63.50;94612.06;5050042;28;20467;-54
2022/04/20 04:06:38;;;;;;;14.03;9.20;;;4.90;93.50;;;4.66;63.16;94608.63;5053061;28;20486;-57
2022/04/20 04:09:06;;;;;;;16.50;9.93;;;4.80;93.30;;;4.65;62.70;94613.00;5055350;28;20455;-55
2022/04/20 04:11:34;;;;;;;11.07;8.93;;;4.90;93.10;;;4.63;62.58;94608.84;5053793;28;20471;-56
2022/04/20 04:14:02;;;;;;;14.83;8.90;;;4.80;92.70;;;4.62;63.23;94608.00;5054205;28;20967;-55
2022/04/20 04:16:29;;;;;;;13.00;9.03;;;4.90;93.10;;;4.63;62.68;94599.28;5056357;28;21043;-57
2022/04/20 04:18:56;;;;;;;12.17;9.40;;;4.90;92.70;;;4.61;63.01;94590.72;5058498;28;20822;-57
2022/04/20 04:21:23;;;;;;;12.63;9.37;;;4.80;92.70;;;4.57;62.39;94591.03;5056631;28;20557;-56
2022/04/20 04:23:51;;;;;;;10.00;8.60;;;4.80;92.60;;;4.54;63.01;94599.06;5057839;28;20459;-55
2022/04/20 04:26:19;;;;;;;11.83;8.83;;;4.70;92.60;;;4.56;63.11;94600.66;5058740;28;20510;-54
2022/04/20 04:28:47;;;;;;;21.13;10.77;;;4.70;93.10;;;4.58;62.44;94598.75;5055441;28;20447;-58
2022/04/20 04:31:15;;;;;;;15.40;10.30;;;4.80;92.70;;;4.57;62.90;94591.91;5060067;28;20482;-56
2022/04/20 04:33:42;;;;;;;20.40;11.83;;;4.80;92.70;;;4.58;62.89;94596.16;5052635;28;20491;-56
2022/04/20 04:36:09;;;;;;;28.63;10.83;;;4.80;93.00;;;4.63;63.53;94588.00;5051706;28;20483;-57
2022/04/20 04:38:37;;;;;;;15.33;10.53;;;4.80;93.40;;;4.70;63.52;94596.22;5050462;28;20968;-57
2022/04/20 04:41:04;;;;;;;16.70;10.67;;;4.90;93.40;;;4.76;62.63;94599.22;5048970;28;20519;-57
2022/04/20 04:43:31;;;;;;;18.50;11.50;;;4.90;92.70;;;4.78;62.95;94601.69;5049438;28;20443;-56
2022/04/20 04:48:48;;;;;;;26.40;12.77;;;5.00;93.00;;;4.85;63.07;94616.78;5054361;28;20463;-57
2022/04/20 04:51:16;;;;;;;21.20;11.10;;;5.00;93.10;;;4.90;63.13;94616.44;5054150;28;20558;-56
2022/04/20 04:53:44;;;;;;;24.73;12.70;;;5.10;93.20;;;4.95;63.11;94614.31;5057394;28;20495;-57
2022/04/20 04:56:11;;;;;;;18.70;10.83;;;5.10;93.20;;;4.98;63.08;94605.47;5053429;28;20710;-54
2022/04/20 04:58:38;;;;;;;14.40;10.10;;;5.20;93.10;;;5.04;62.54;94607.63;5054862;28;20935;-56
2022/04/20 05:01:07;;;;;;;14.30;11.27;;;5.20;92.90;;;5.07;62.76;94603.97;5052962;28;20483;-56
2022/04/20 05:03:34;;;;;;;21.30;11.70;;;5.20;92.90;;;5.11;62.71;94626.22;5055363;28;20832;-56
2022/04/20 05:06:01;;;;;;;18.93;12.60;;;5.30;93.20;;;5.13;62.95;94621.75;5056156;28;20855;-55
2022/04/20 05:08:29;;;;;;;24.93;12.03;;;5.30;92.90;;;5.16;62.76;94629.34;5049996;28;20456;-57
2022/04/20 05:10:56;;;;;;;22.30;11.23;;;5.30;92.90;;;5.19;62.36;94624.75;5052492;28;20543;-55
2022/04/20 05:13:24;;;;;;;18.73;11.40;;;5.40;92.80;;;5.22;62.28;94636.72;5054635;28;20900;-57
2022/04/20 05:15:51;;;;;;;20.50;10.30;;;5.40;92.60;;;5.25;62.16;94636.50;5053283;28;20498;-57
2022/04/20 05:18:20;;;;;;;14.47;11.77;;;5.40;92.60;;;5.25;62.04;94635.66;5053667;28;20480;-57
2022/04/20 05:20:47;;;;;;;14.07;10.97;;;5.40;92.40;;;5.26;62.29;94643.34;5046612;28;20541;-57
2022/04/20 05:23:14;;;;;;;12.43;9.13;;;5.40;92.50;;;5.29;62.05;94655.34;5047647;28;20484;-57
2022/04/20 05:25:42;;;;;;;19.47;11.57;;;5.40;92.40;;;5.30;62.09;94651.78;5051801;28;20462;-54
2022/04/20 05:28:09;;;;;;;16.03;11.13;;;5.50;92.50;;;5.31;61.84;94646.44;5057225;28;20463;-57
2022/04/20 05:30:37;;;;;;;21.70;11.70;;;5.50;92.30;;;5.33;61.59;94659.38;5052677;28;20528;-57
2022/04/20 05:33:04;;;;;;;15.93;10.73;;;5.50;92.50;;;5.34;61.92;94661.88;5052201;28;20578;-57
2022/04/20 05:35:33;;;;;;;18.93;10.90;;;5.50;92.30;;;5.35;62.00;94647.06;5062637;28;20493;-55
2022/04/20 05:43:30;;;;;;;17.63;12.00;;;5.50;92.20;;;5.40;62.60;94650.16;5058097;28;20415;-58
2022/04/20 05:45:57;;;;;;;11.27;10.00;;;5.50;92.70;;;5.42;62.55;94663.09;5058062;28;20474;-57
2022/04/20 05:48:24;;;;;;;12.13;9.20;;;5.60;92.70;;;5.43;62.63;94654.31;5058819;28;20508;-56
2022/04/20 05:50:53;;;;;;;14.20;10.37;;;5.60;93.00;;;5.43;62.24;94664.75;5057044;28;20579;-56
2022/04/20 05:53:20;;;;;;;12.87;10.80;;;5.60;92.70;;;5.45;62.42;94673.28;5055007;28;20500;-56
2022/04/20 05:55:47;;;;;;;15.97;10.17;;;5.60;92.70;;;5.46;62.27;94664.53;5060394;28;20884;-56
2022/04/20 05:58:14;;;;;;;14.70;10.00;;;5.60;92.70;;;5.48;62.44;94667.84;5061873;28;20967;-57
2022/04/20 06:00:42;;;;;;;15.80;11.30;;;5.60;92.80;;;5.49;62.86;94665.13;5052079;28;20529;-58
2022/04/20 06:03:09;;;;;;;14.30;11.60;;;5.60;93.10;;;5.49;62.91;94672.94;5050594;28;20459;-56
2022/04/20 06:05:36;;;;;;;16.00;9.93;;;5.60;93.10;;;5.50;63.13;94676.38;5054255;28;20482;-55
2022/04/20 06:08:06;;;;;;;15.50;11.63;;;5.70;93.40;;;5.52;63.28;94675.34;5052411;28;20451;-57
2022/04/20 06:10:33;;;;;;;13.53;10.50;;;5.70;93.50;;;5.55;63.23;94662.06;5059076;28;20979;-56
2022/04/20 06:13:00;;;;;;;26.53;11.23;;;5.70;93.50;;;5.57;63.60;94661.94;5057209;28;20485;-57
2022/04/20 06:15:27;;;;;;;14.77;11.50;;;5.70;93.90;;;5.55;63.64;94663.84;5057321;28;20483;-56
2022/04/20 06:17:55;;;;;;;15.80;10.57;;;5.70;93.80;;;5.57;63.72;94661.94;5060066;28;20942;-57
2022/04/20 06:20:22;;;;;;;21.43;11.10;;;5.70;93.80;;;5.60;63.79;94663.50;5059802;28;20475;-57
2022/04/20 06:22:50;;;;;;;14.63;11.30;;;5.70;94.00;;;5.55;64.38;94663.84;5057293;28;20463;-57
2022/04/20 06:25:18;;;;;;;16.80;11.60;;;5.70;94.30;;;5.53;64.48;94653.53;5058047;28;20467;-55
2022/04/20 06:27:46;;;;;;;17.50;13.00;;;5.70;94.30;;;5.55;64.74;94648.19;5057676;28;20454;-61
2022/04/20 06:30:13;;;;;;;14.93;11.63;;;5.70;94.60;;;5.58;65.13;94637.53;5055815;28;20569;-56
2022/04/20 06:32:40;;;;;;;24.00;14.27;;;5.70;94.90;;;5.60;65.13;94646.06;5052657;28;20486;-55
2022/04/20 06:35:09;;;;;;;25.73;14.63;;;5.80;94.90;;;5.63;64.53;94640.63;5056265;28;20486;-56
2022/04/20 06:37:36;;;;;;;23.47;15.00;;;5.80;94.80;;;5.65;64.90;94643.94;5050933;28;20456;-56
2022/04/20 06:40:04;;;;;;;21.47;15.23;;;5.80;94.90;;;5.64;65.19;94637.06;5051264;28;20967;-56
2022/04/20 06:42:33;;;;;;;25.20;15.23;;;5.80;94.90;;;5.67;64.18;94641.22;5055667;28;20952;-56
2022/04/20 06:45:01;;;;;;;21.33;15.27;;;5.80;94.90;;;5.71;65.03;94643.47;5060677;28;20489;-58
2022/04/20 06:47:29;;;;;;;25.30;15.40;;;5.90;95.00;;;5.74;64.98;94651.06;5055015;28;20537;-56
2022/04/20 06:49:56;;;;;;;21.53;14.67;;;5.90;95.00;;;5.79;65.41;94652.50;5056598;28;20558;-55
2022/04/20 07:00:40;;;;;;;24.40;14.60;;;6.00;94.80;;;5.80;64.58;94634.13;5054909;28;20450;-57
2022/04/20 07:03:07;;;;;;;18.83;14.97;;;6.00;94.60;;;5.73;64.71;94625.94;5054314;28;20515;-57
2022/04/20 07:05:35;;;;;;;20.87;13.73;;;5.90;94.50;;;5.70;65.09;94618.34;5056493;28;20478;-57
2022/04/20 07:08:02;;;;;;;19.27;14.60;;;5.90;94.80;;;5.68;64.61;94622.81;5057269;28;20538;-55
2022/04/20 07:10:30;;;;;;;24.23;15.93;;;5.90;94.90;;;5.72;65.08;94639.09;5055216;28;20837;-57
2022/04/20 07:12:58;;;;;;;27.23;16.33;;;5.90;95.00;;;5.74;65.22;94656.28;5051875;28;20491;-57
2022/04/20 07:15:26;;;;;;;18.13;14.30;;;5.90;95.10;;;5.77;65.29;94657.84;5049097;28;21031;-55
2022/04/20 07:17:53;;;;;;;20.20;14.27;;;5.90;95.30;;;5.79;65.04;94662.94;5050253;28;20861;-56
2022/04/20 07:20:20;;;;;;;20.97;14.77;;;5.90;95.30;;;5.83;65.38;94661.78;5049609;28;20472;-57
2022/04/20 07:22:49;;;;;;;17.93;13.80;;;6.00;95.40;;;5.85;65.54;94659.88;5051018;28;20443;-56
2022/04/20 07:25:17;;;;;;;29.73;15.37;;;6.00;95.40;;;5.88;65.52;94664.88;5055115;28;20486;-56
2022/04/20 07:27:45;;;;;;;20.30;13.90;;;6.00;95.50;;;5.90;65.50;94655.13;5058342;28;20525;-57
2022/04/20 07:30:15;;;;;;;19.90;15.60;;;6.00;95.60;;;5.91;65.46;94651.56;5059611;28;20463;-57
2022/04/20 07:32:42;;;;;;;17.70;14.97;;;6.10;95.30;;;5.92;65.56;94648.03;5054465;28;20495;-57
2022/04/20 07:35:10;;;;;;;22.73;16.00;;;6.10;95.30;;;5.93;65.43;94647.06;5056826;28;20477;-56
2022/04/20 07:37:37;;;;;;;20.87;15.27;;;6.10;95.30;;;5.95;65.58;94639.13;5056609;28;20720;-55
2022/04/20 07:40:06;;;;;;;21.40;14.83;;;6.10;95.30;;;5.95;65.39;94646.94;5058373;28;20475;-58
2022/04/20 07:42:35;;;;;;;21.23;15.47;;;6.10;95.30;;;5.96;65.73;94644.22;5053834;28;20482;-56
2022/04/20 07:45:02;;;;;;;23.73;16.10;;;6.10;95.50;;;5.97;65.65;94643.31;5055905;28;20471;-58
2022/04/20 07:47:31;;;;;;;30.07;16.37;;;6.10;95.60;;;5.99;65.67;94646.63;5054759;28;20558;-57
2022/04/20 07:52:45;;;;;;;25.33;16.27;;;6.20;95.40;;;6.05;65.39;94654.00;5056271;28;20422;-55
2022/04/20 07:55:13;;;;;;;27.10;16.73;;;6.20;95.40;;;6.06;65.42;94652.22;5062278;28;20474;-57
2022/04/20 07:57:42;;;;;;;19.60;16.13;;;6.20;95.50;;;6.06;65.17;94645.22;5052016;28;20486;-55
2022/04/20 08:00:11;;;;;;;24.67;15.77;;;6.20;95.30;;;6.05;65.46;94643.53;5051536;28;20479;-57
2022/04/20 08:02:40;;;;;;;20.70;15.00;;;6.20;95.40;;;6.06;65.66;94639.19;5052073;28;20509;-56
2022/04/20 08:05:09;;;;;;;39.77;15.43;;;6.20;95.40;;;6.05;65.38;94638.31;5054779;28;20479;-55
2022/04/20 08:07:36;;;;;;;23.43;16.60;;;6.20;95.20;;;6.05;65.14;94635.72;5054769;28;20504;-57
2022/04/20 08:10:04;;;;;;;21.50;16.00;;;6.20;95.10;;;6.03;65.78;94635.00;5056449;28;20480;-57
2022/04/20 08:12:36;;;;;;;26.43;17.13;;;6.20;95.50;;;6.05;65.27;94629.66;5055866;28;20577;-57
2022/04/20 08:15:05;;;;;;;21.30;15.90;;;6.20;95.40;;;6.05;65.91;94619.22;5057277;28;21019;-57
2022/04/20 08:17:33;;;;;;;24.77;17.97;;;6.20;95.50;;;6.06;65.51;94626.94;5058483;28;20447;-57
2022/04/20 08:20:02;;;;;;;35.80;18.73;;;6.20;95.70;;;6.09;65.83;94621.47;5056785;28;20475;-57
2022/04/20 08:22:29;;;;;;;30.03;20.20;;;6.20;95.60;;;6.12;65.32;94624.78;5054674;28;20452;-57
2022/04/20 08:24:56;;;;;;;37.83;20.80;;;6.20;95.50;;;6.13;65.86;94616.03;5053873;28;20850;-58
2022/04/20 08:27:23;;;;;;;29.27;20.47;;;6.30;95.90;;;6.14;65.68;94609.88;5055085;28;20450;-57
2022/04/20 08:29:52;;;;;;;28.57;20.37;;;6.30;95.70;;;6.17;65.97;94613.06;5055346;28;20860;-57
2022/04/20 08:32:19;;;;;;;29.13;19.00;;;6.30;95.80;;;6.17;65.79;94607.84;5054724;28;20550;-57
2022/04/20 08:34:48;;;;;;;31.47;19.77;;;6.30;95.90;;;6.23;66.25;94612.56;5053518;28;20918;-57
2022/04/20 08:37:17;;;;;;;31.93;20.27;;;6.40;96.10;;;6.26;65.63;94606.28;5048616;28;20463;-57
2022/04/20 08:39:45;;;;;;;25.10;18.57;;;6.40;95.70;;;6.27;65.54;94595.72;5050953;28;20578;-56
2022/04/20 08:42:12;;;;;;;32.80;20.50;;;6.40;95.60;;;6.24;65.21;94600.34;5051001;28;20514;-57
2022/04/20 08:44:44;;;;;;;31.70;20.90;;;6.40;95.60;;;6.21;65.89;94608.41;5051522;28;20601;-57
2022/04/20 08:47:17;;;;;;;34.30;23.13;;;6.30;95.60;;;6.20;66.13;94570.22;5058780;28;20971;-55
2022/04/20 08:49:45;;;;;;;34.00;24.27;;;6.30;96.00;;;6.14;66.29;94568.91;5052955;28;20817;-57
2022/04/20 08:54:58;;;;;;;36.03;24.03;;;6.30;96.00;;;6.10;66.53;94578.78;5055279;28;20648;-57
2022/04/20 08:57:26;;;;;;;40.63;26.77;;;6.30;96.40;;;6.12;66.99;94578.66;5055700;28;20819;-57
2022/04/20 08:59:54;;;;;;;40.87;27.70;;;6.30;96.50;;;6.13;66.96;94575.06;5053377;28;20472;-57
2022/04/20 09:02:24;;;;;;;45.40;28.60;;;6.30;96.90;;;6.14;66.99;94581.97;5054664;28;20982;-57
2022/04/20 09:04:52;;;;;;;44.93;27.60;;;6.30;96.70;;;6.17;66.61;94584.34;5059605;28;20900;-57
2022/04/20 09:07:19;;;;;;;46.53;28.53;;;6.30;96.20;;;6.18;65.86;94577.31;5054542;28;20539;-57
2022/04/20 09:09:47;;;;;;;45.43;28.80;;;6.30;96.00;;;6.13;66.09;94574.25;5054249;28;20941;-55
2022/04/20 09:12:18;;;;;;;42.87;29.07;;;6.30;96.00;;;6.11;66.17;94579.59;5057167;28;20557;-57
2022/04/20 09:14:48;;;;;;;52.90;30.40;;;6.30;96.00;;;6.08;66.68;94562.38;5051565;28;20584;-56
2022/04/20 09:17:17;;;;;;;57.30;30.90;;;6.30;96.30;;;6.08;67.03;94559.75;5055481;28;20530;-57
2022/04/20 09:19:45;;;;;;;44.60;28.97;;;6.30;96.80;;;6.15;66.76;94556.66;5059729;28;20484;-57
2022/04/20 09:22:20;;;;;;;41.90;28.70;;;6.20;96.70;;;6.18;67.34;94556.44;5062785;28;21167;-55
2022/04/20 09:25:08;;;;;;;36.93;25.13;;;6.30;97.00;;;6.22;67.10;94543.00;5059197;28;20469;-57
2022/04/20 09:27:37;;;;;;;47.00;28.80;;;6.30;96.90;;;6.26;67.04;94527.94;5054673;28;20446;-57
2022/04/20 09:30:09;;;;;;;40.97;27.77;;;6.40;97.00;;;6.34;67.46;94549.06;5060155;28;20497;-57
2022/04/20 09:32:38;;;;;;;38.90;26.03;;;6.40;97.40;;;6.38;66.86;94547.88;5060512;28;20459;-57
2022/04/20 09:35:07;;;;;;;33.00;23.60;;;6.50;97.10;;;6.39;67.82;94561.75;5060600;28;20496;-57
2022/04/20 09:37:36;;;;;;;42.70;25.13;;;6.50;97.40;;;6.42;68.03;94536.19;5060608;28;20467;-56
2022/04/20 09:40:05;;;;;;;39.80;24.33;;;6.50;97.50;;;6.44;68.30;94542.16;5062804;28;20475;-58
2022/04/20 09:42:34;;;;;;;32.73;23.40;;;6.60;97.80;;;6.45;67.75;94537.75;5060408;28;20459;-57
2022/04/20 09:45:04;;;;;;;37.33;23.43;;;6.60;97.70;;;6.48;68.45;94536.69;5063877;28;21022;-57
2022/04/20 09:50:22;;;;;;;21.60;16.40;;;6.60;98.20;;;6.59;68.50;94524.41;5061219;28;20447;-56
2022/04/20 09:52:50;;;;;;;22.10;16.20;;;6.70;97.90;;;6.61;67.39;94532.94;5054657;28;21015;-58
2022/04/20 09:55:27;;;;;;;29.90;18.50;;;6.70;97.40;;;6.62;68.31;94521.53;5056075;28;20494;-57
2022/04/20 09:58:11;;;;;;;22.93;16.57;;;6.70;97.90;;;6.64;67.99;94509.16;5057802;28;20512;-58
2022/04/20 10:00:43;;;;;;;27.67;17.73;;;6.80;97.90;;;6.68;67.69;94538.50;5054047;28;20498;-57
2022/04/20 10:03:10;;;;;;;27.07;19.40;;;6.80;97.70;;;6.72;68.34;94537.28;5063758;28;20453;-57
2022/04/20 10:05:38;;;;;;;38.40;26.70;;;6.80;98.20;;;6.77;68.24;94539.53;5056761;28;20836;-57
2022/04/20 10:08:07;;;;;;;38.93;27.77;;;6.90;98.10;;;6.80;67.62;94521.84;5060949;28;20448;-57
2022/04/20 10:10:35;;;;;;;41.47;28.40;;;6.90;97.70;;;6.82;67.46;94504.22;5060067;28;20467;-57
2022/04/20 10:13:03;;;;;;;44.70;29.43;;;6.90;97.50;;;6.81;67.37;94520.84;5061951;28;20443;-57
2022/04/20 10:18:19;;;;;;;42.90;28.83;;;6.90;97.50;;;6.82;67.85;94519.09;5060525;28;20423;-57
2022/04/20 10:20:51;;;;;;;44.23;28.30;;;6.90;97.50;;;6.81;68.12;94513.00;5061578;28;20466;-57
2022/04/20 10:23:20;;;;;;;43.80;29.83;;;6.90;97.50;;;6.82;67.60;94490.34;5057638;28;20439;-58
2022/04/20 10:25:48;;;;;;;44.20;28.10;;;7.00;97.60;;;6.81;67.47;94493.91;5061167;28;20753;-57
2022/04/20 10:28:22;;;;;;;38.67;27.43;;;6.90;97.60;;;6.86;69.04;94483.06;5052192;28;20460;-58
2022/04/20 10:31:10;;;;;;;48.97;27.03;;;7.00;98.20;;;6.92;68.22;94485.16;5059100;28;20475;-57
2022/04/20 10:33:39;;;;;;;44.50;26.43;;;7.00;97.90;;;6.98;67.92;94484.66;5052386;28;20955;-56
2022/04/20 10:36:11;;;;;;;45.30;26.37;;;7.00;97.90;;;7.02;67.75;94474.75;5051939;28;20999;-57
2022/04/20 10:38:39;;;;;;;41.50;28.10;;;7.10;97.70;;;7.05;68.01;94482.34;5055180;28;20861;-57
2022/04/20 10:41:11;;;;;;;47.30;28.00;;;7.10;97.90;;;7.09;68.04;94481.16;5055000;28;20844;-57
2022/04/20 10:43:39;;;;;;;41.33;28.20;;;7.20;97.70;;;7.12;67.61;94473.06;5059011;28;20443;-58
2022/04/20 10:46:14;;;;;;;41.63;25.10;;;7.20;97.80;;;7.15;67.98;94472.78;5057019;28;20468;-56
2022/04/20 10:49:02;;;;;;;38.40;26.43;;;7.20;97.80;;;7.16;67.65;94464.81;5054849;28;20522;-56
2022/04/20 10:51:42;;;;;;;37.27;23.33;;;7.30;97.80;;;7.17;68.45;94481.31;5057077;28;20816;-57
2022/04/20 10:54:27;;;;;;;39.83;25.00;;;7.20;97.70;;;7.18;67.59;94467.31;5058765;28;20564;-57
2022/04/20 10:57:13;;;;;;;47.57;28.70;;;7.30;97.80;;;7.19;68.09;94458.50;5055676;28;20463;-56